Tiempo atmosférico en la estación meteorológica de Ibias, San Antolin, Asturias (762 m.)



Fecha
DESCASC
Temp. máxima en grados centígrados (hora)
DESCASC
Temp. mínima en grados centígrados (hora)
DESCASC
Temp. media en grados centígrados
DESCASC
Racha de viento máxima en m/sg (hora)
DESCASC
Velocidad máxima media en intervalos de 10 minutos(hora)
DESCASC
Precipitaciones diarias en mm
DESCASC
Precipitaciones de 00:00 a 06:00 en mm
DESCASC
Precipitaciones de 06:00 a 12:00 en mm
DESCASC
Precipitaciones de 12:00 a 18:00 en mm
DESCASC
Precipitaciones de 18:00 a 24:00 en mm
DESCASC
28-02-2021 12.7 (16:50) 0.8 (08:30) 6.7 5.28 (13:40) 3.06 (13:50) 0 0 0 0 0
27-02-2021 13.3 (15:40) 4.7 (23:10) 9 7.5 (14:10) 4.17 (19:30) 0 0 0 0 0
26-02-2021 13.2 (14:50) 5.2 (01:40) 9.2 7.5 (06:00) 4.17 (04:30) 0 0 0 0 0
25-02-2021 11.7 (01:20) 4.6 (00:00) 8.1 10.83 (04:40) 8.06 (04:40) 7 3.4 2.6 1 0
24-02-2021 16.1 (16:10) 8.7 (00:00) 12.4 18.61 (13:30) 12.78 (13:30) 0 0 0 0 0
23-02-2021 15.9 (14:20) 5.9 (00:00) 10.9 11.94 (13:10) 8.89 (13:10) 0 0 0 0 0
22-02-2021 12.1 (16:50) 1.3 (00:00) 6.7 9.44 (21:00) 6.11 (21:30) 0 0 0 0 0
21-02-2021 8.9 (05:10) 0.9 (00:00) 4.9 13.61 (05:10) 8.33 (05:10) 9.6 0.8 6.8 1.4 0.6
20-02-2021 12.3 (10:10) 7 (00:00) 9.7 24.17 (08:50) 13.89 (08:40) 10.2 0 0.4 1.4 8.4
19-02-2021 13 (12:30) 7.5 (00:00) 10.3 20.83 (16:30) 13.33 (11:50) 0 0 0 0 0
18-02-2021 9.7 (00:00) 5.2 (00:00) 7.4 20.83 (05:40) 11.67 (05:10) 45.4 24.6 19.8 1 0
17-02-2021 12.7 (15:00) 6.3 (00:00) 9.5 20.83 (13:20) 13.06 (13:40) 6.8 0 0 0 6.8
16-02-2021 13.5 (00:00) 5.7 (00:00) 9.6 18.61 (07:00) 10.56 (07:20) 6 0 5.6 0.4 0
15-02-2021 19.1 (13:30) 11.8 (00:00) 15.5 18.61 (03:00) 10 (19:50) 0 0 0 0 0
14-02-2021 16.4 (16:20) 8.2 (00:00) 12.3 12.78 (23:10) 8.61 (23:20) 0 0 0 0 0
13-02-2021 13 (13:50) 5.7 (00:00) 9.3 11.11 (15:30) 7.22 (15:30) 0.4 0 0.2 0.2 0
12-02-2021 11.3 (15:50) 6.8 (00:00) 9.1 18.89 (04:10) 11.39 (04:10) 13 6.8 6.2 0 0
11-02-2021 13.5 (16:00) 5.8 (00:00) 9.7 14.72 (16:40) 9.17 (16:40) 8.8 0.2 0.2 0 8.4
10-02-2021 9.7 (17:10) 1.9 (00:00) 5.8 13.33 (02:50) 8.33 (07:50) 6.8 5.8 1 0 0
09-02-2021 7.3 (05:10) 1.8 (00:00) 4.6 23.61 (08:50) 13.89 (12:10) 25.2 1.4 14.4 2.8 6.6
08-02-2021 6.5 (16:50) 3.6 (00:00) 5 18.06 (23:00) 10.83 (23:10) 13.6 5.4 3.8 3.2 1.2
07-02-2021 7.4 (19:50) -1.5 (-00:0) 3 16.39 (18:30) 9.17 (18:10) 6.2 0 1 2 3.2
06-02-2021 4.5 (13:30) 0.7 (00:00) 2.6 9.17 (04:00) 5.83 (04:00) 4.2 3.6 0.6 0 0
05-02-2021 6.4 (13:50) 2.9 (00:00) 4.7 6.94 (18:40) 4.72 (18:50) 5 0 0 2 3
04-02-2021 8.8 (16:50) 5.4 (00:00) 7.1 15.56 (00:10) 8.33 (00:10) 0 0 0 0 0
03-02-2021 10.4 (14:40) 5.1 (00:00) 7.7 22.78 (00:50) 13.89 (02:20) 12.2 7.4 4 0 0.8
02-02-2021 12.2 (16:10) 9.1 (00:00) 10.7 21.39 (03:00) 12.5 (01:50) 10.6 0 1 4.2 5.4
01-02-2021 11.4 (23:00) 7.9 (00:00) 9.6 20.83 (00:50) 11.39 (00:10) 0.4 0 0.2 0.2 0
31-01-2021 12.6 (16:10) 5.2 (00:00) 8.9 23.33 (21:20) 11.67 (22:00) 8.2 4.4 3.6 0.2 0
30-01-2021 9.7 (00:00) 4.4 (00:00) 7 26.94 (04:40) 15.28 (01:10) 19.6 7.4 2.4 6.6 3.2

Gráficas

Temp. máximas Temp. mínimas Temp. medias Precipitaciones Rachas de viento máximas Velocidades máximas media en intervalos de 10 minutos

Datos horarios

Fecha y hora oficial Temperatura (ºC) Velocidad del viento (km/h) Dirección del viento Racha (km/h) Dirección de racha Precipitación (mm) Presión (hPa) Tendencia (hPa) Humedad (%)
2021-02-28 23:00:00 4.6 4 Este 14 Sudeste 0 -- -- 90
2021-02-28 22:00:00 5 6 Sudeste 10 Este 0 -- -- 89
2021-02-28 21:00:00 5.1 7 Este 9 Este 0 -- -- 86
2021-02-28 20:00:00 6.4 6 Norte 18 Noroeste 0 -- -- 79
2021-02-28 19:00:00 8.7 6 Noroeste 12 Oeste 0 -- -- 69
2021-02-28 18:00:00 11.6 5 Noroeste 13 Norte 0 -- -- 58
2021-02-28 17:00:00 12.4 8 Norte 17 Noroeste 0 -- -- 51
2021-02-28 16:00:00 12.5 6 Norte 15 Nordeste 0 -- -- 52
2021-02-28 15:00:00 11.9 8 Nordeste 17 Norte 0 -- -- 52
2021-02-28 14:00:00 10.7 10 Este 19 Nordeste 0 -- -- 58
2021-02-28 13:00:00 9.2 7 Nordeste 18 Nordeste 0 -- -- 66
2021-02-28 12:00:00 7.3 8 Nordeste 18 Nordeste 0 -- -- 79
2021-02-28 11:00:00 5 8 Norte 15 Norte 0 -- -- 100
2021-02-28 10:00:00 2.3 6 Este 12 Este 0 -- -- 100
2021-02-28 09:00:00 1.9 3 Nordeste 8 Nordeste 0 -- -- 100
2021-02-28 08:00:00 1 5 Nordeste 9 Nordeste 0 -- -- 99
2021-02-28 07:00:00 1.6 5 Nordeste 10 Norte 0 -- -- 98
2021-02-28 06:00:00 2.1 6 Norte 14 Norte 0 -- -- 98
2021-02-28 05:00:00 2.2 8 Nordeste 13 Norte 0 -- -- 97
2021-02-28 04:00:00 2.6 6 Nordeste 9 Nordeste 0 -- -- 97
2021-02-28 03:00:00 3.1 5 Nordeste 9 Norte 0 -- -- 96
2021-02-28 02:00:00 4.3 4 Nordeste 10 Este 0 -- -- 94
2021-02-28 01:00:00 4.4 6 Nordeste 12 Norte 0 -- -- 95
2021-02-28 00:00:00 4.8 7 Este 10 Este 0 -- -- 96
2021-02-27 23:00:00 4.8 6 Nordeste 14 Norte 0 -- -- 95
2021-02-27 22:00:00 5.6 5 Nordeste 11 Norte 0 -- -- 93
2021-02-27 21:00:00 6.2 5 Nordeste 12 Norte 0 -- -- 89
2021-02-27 20:00:00 7.2 9 Norte 24 Norte 0 -- -- 85
2021-02-27 19:00:00 8.8 14 Norte 21 Norte 0 -- -- 79
2021-02-27 18:00:00 11.2 9 Norte 20 Norte 0 -- -- 70
2021-02-27 17:00:00 12.3 10 Norte 19 Norte 0 -- -- 69
2021-02-27 16:00:00 13 10 Norte 19 Norte 0 -- -- 67
2021-02-27 15:00:00 12.9 9 Nordeste 27 Este 0 -- -- 69
2021-02-27 14:00:00 13.2 12 Nordeste 24 Nordeste 0 -- -- 70
2021-02-27 13:00:00 12.8 11 Nordeste 24 Nordeste 0 -- -- 71
2021-02-27 12:00:00 11.4 7 Nordeste 14 Nordeste 0 -- -- 77
2021-02-27 11:00:00 9.4 6 Nordeste 13 Nordeste 0 -- -- 84
2021-02-27 10:00:00 7.8 6 Este 10 Este 0 -- -- 90
2021-02-27 09:00:00 5.8 5 Nordeste 11 Sudeste 0 -- -- 95
2021-02-27 08:00:00 5.3 6 Este 13 Sudeste 0 -- -- 94
2021-02-27 07:00:00 5.3 8 Sudeste 12 Sudeste 0 -- -- 96
2021-02-27 06:00:00 5.5 5 Este 8 Este 0 -- -- 97
2021-02-27 05:00:00 5.6 4 Nordeste 8 Norte 0 -- -- 97
2021-02-27 04:00:00 5.8 5 Nordeste 9 Nordeste 0 -- -- 96
2021-02-27 03:00:00 6 4 Nordeste 8 Nordeste 0 -- -- 96
2021-02-27 02:00:00 6.3 5 Nordeste 10 Nordeste 0 -- -- 96
2021-02-27 01:00:00 6.8 8 Este 13 Este 0 -- -- 96
2021-02-27 00:00:00 7 8 Nordeste 13 Norte 0 -- -- 94
2021-02-26 23:00:00 7.2 9 Norte 14 Norte 0 -- -- 94
2021-02-26 22:00:00 7.6 5 Nordeste 13 Norte 0 -- -- 93
2021-02-26 21:00:00 7.7 9 Norte 14 Norte 0 -- -- 93
2021-02-26 20:00:00 8 8 Norte 16 Norte 0 -- -- 90
2021-02-26 19:00:00 8.4 12 Norte 20 Norte 0 -- -- 89
2021-02-26 18:00:00 9.7 10 Nordeste 19 Nordeste 0 -- -- 84
2021-02-26 17:00:00 11.3 6 Norte 14 Nordeste 0 -- -- 78
2021-02-26 16:00:00 12.5 9 Norte 18 Norte 0 -- -- 73
2021-02-26 15:00:00 13.2 8 Norte 18 Norte 0 -- -- 72
2021-02-26 14:00:00 12.9 9 Nordeste 19 Norte 0 -- -- 74
2021-02-26 13:00:00 11.7 9 Nordeste 15 Nordeste 0 -- -- 80
2021-02-26 12:00:00 10.5 6 Nordeste 14 Nordeste 0 -- -- 84
2021-02-26 11:00:00 9 8 Nordeste 10 Nordeste 0 -- -- 86
2021-02-26 10:00:00 7.8 6 Nordeste 14 Nordeste 0 -- -- 88
2021-02-26 09:00:00 6.2 6 Este 17 Este 0 -- -- 92
2021-02-26 08:00:00 5.6 0 Calma 11 Sudeste 0 -- -- 92
2021-02-26 07:00:00 5.7 9 Sudeste 20 Este 0 -- -- 92
2021-02-26 06:00:00 5.9 12 Nordeste 27 Este 0 -- -- 95
2021-02-26 05:00:00 5.8 13 Nordeste 22 Nordeste 0 -- -- 95
2021-02-26 04:00:00 5.2 8 Nordeste 18 Nordeste 0 -- -- 96
2021-02-26 03:00:00 5.6 6 Este 18 Este 0 -- -- 94
2021-02-26 02:00:00 5.2 7 Nordeste 10 Nordeste 0 -- -- 98
2021-02-26 01:00:00 5.4 9 Nordeste 17 Norte 0 -- -- 99
2021-02-26 00:00:00 5.5 8 Nordeste 15 Norte 0 -- -- 98
2021-02-25 23:00:00 5.5 9 Norte 13 Norte 0 -- -- 97
2021-02-25 22:00:00 6.1 10 Norte 15 Nordeste 0 -- -- 97
2021-02-25 21:00:00 6.2 6 Norte 19 Norte 0 -- -- 97
2021-02-25 20:00:00 6.1 9 Norte 17 Norte 0 -- -- 98
2021-02-25 19:00:00 6.1 10 Norte 17 Nordeste 0 -- -- 98
2021-02-25 18:00:00 6.4 11 Norte 17 Norte 0 -- -- 97
2021-02-25 17:00:00 6.5 5 Nordeste 14 Norte 0 -- -- 96
2021-02-25 16:00:00 6.6 7 Norte 13 Norte 0.2 -- -- 97
2021-02-25 15:00:00 6.6 5 Nordeste 10 Nordeste 0.2 -- -- 97
2021-02-25 14:00:00 6.4 5 Este 13 Nordeste 0 -- -- 96
2021-02-25 13:00:00 6.1 7 Nordeste 10 Nordeste 0.6 -- -- 97
2021-02-25 12:00:00 5.5 5 Sudoeste 13 Sudeste 0.4 -- -- 93
2021-02-25 11:00:00 4.9 6 Sudeste 20 Este 0 -- -- 94
2021-02-25 10:00:00 4.6 10 Sudeste 17 Sur 0.4 -- -- 97
2021-02-25 09:00:00 4.7 14 Sudeste 19 Sudeste 0.4 -- -- 98
2021-02-25 08:00:00 5.1 6 Este 8 Este 0 -- -- 98
2021-02-25 07:00:00 5.1 0 Calma 11 Oeste 1.4 -- -- 98
2021-02-25 06:00:00 5.2 9 Oeste 29 Oeste 1.8 -- -- 98
2021-02-25 05:00:00 5.5 21 Oeste 39 Oeste 1.4 -- -- 98
2021-02-25 04:00:00 6.8 15 Oeste 20 Oeste 0 -- -- 96
2021-02-25 03:00:00 8.8 5 Sudoeste 32 Sudoeste 0.2 -- -- 86
2021-02-25 02:00:00 9.5 25 Sudoeste 35 Sudoeste 0 -- -- 81
2021-02-25 01:00:00 11.6 13 Sur 26 Sur 0 -- -- 62
2021-02-25 00:00:00 10.5 7 Sudoeste 17 Sudoeste 0 -- -- 65
2021-02-24 23:00:00 10.6 12 Sudoeste 25 Sur 0 -- -- 62
2021-02-24 22:00:00 12 18 Sur 31 Sur 0 -- -- 57
2021-02-24 21:00:00 12.3 20 Sur 31 Sur 0 -- -- 56
2021-02-24 20:00:00 12.3 15 Sur 24 Sur 0 -- -- 56
2021-02-24 19:00:00 12.8 17 Sudoeste 40 Sudoeste 0 -- -- 56
2021-02-24 18:00:00 14.2 33 Sudoeste 55 Sudoeste 0 -- -- 49
2021-02-24 17:00:00 15.4 11 Sudeste 30 Sur 0 -- -- 47
2021-02-24 16:00:00 15.9 22 Sur 55 Sur 0 -- -- 43
2021-02-24 15:00:00 15.5 30 Sur 52 Sur 0 -- -- 46
2021-02-24 14:00:00 14.9 33 Sur 67 Sudoeste 0 -- -- 46
2021-02-24 13:00:00 15.1 25 Sur 47 Sur 0 -- -- 43
2021-02-24 12:00:00 13.9 28 Sur 48 Sur 0 -- -- 44
2021-02-24 11:00:00 12.8 22 Sur 46 Sur 0 -- -- 48
2021-02-24 10:00:00 11.3 30 Sur 55 Sur 0 -- -- 50
2021-02-24 09:00:00 9.9 9 Sudeste 34 Sudeste 0 -- -- 54
2021-02-24 08:00:00 8.8 10 Sur 30 Sur 0 -- -- 59
2021-02-24 07:00:00 9.1 13 Sur 29 Sur 0 -- -- 58
2021-02-24 06:00:00 8.8 22 Sur 36 Sur 0 -- -- 58
2021-02-24 05:00:00 8.8 24 Sur 38 Sur 0 -- -- 56
2021-02-24 04:00:00 9.1 22 Sur 31 Sur 0 -- -- 50
2021-02-24 03:00:00 9 24 Sudoeste 35 Sudoeste 0 -- -- 48
2021-02-24 02:00:00 9.7 22 Sudoeste 33 Sur 0 -- -- 46
2021-02-24 01:00:00 10.2 21 Sur 37 Sur 0 -- -- 45
2021-02-24 00:00:00 10.9 23 Sur 38 Sur 0 -- -- 45
2021-02-23 23:00:00 10.3 16 Sur 26 Sur 0 -- -- 58
2021-02-23 22:00:00 11.2 19 Sur 32 Sur 0 -- -- 57
2021-02-23 21:00:00 11.8 10 Sur 24 Sudeste 0 -- -- 57
2021-02-23 20:00:00 12.5 13 Sudeste 27 Este 0 -- -- 56
2021-02-23 19:00:00 13.1 12 Sudeste 27 Sudeste 0 -- -- 56
2021-02-23 18:00:00 13.8 15 Sudeste 33 Sudeste 0 -- -- 55
2021-02-23 17:00:00 14.4 12 Sur 32 Sudoeste 0 -- -- 54
2021-02-23 16:00:00 14.7 18 Sudeste 39 Sur 0 -- -- 52
2021-02-23 15:00:00 14.7 25 Sur 41 Sur 0 -- -- 50
2021-02-23 14:00:00 15.6 26 Sur 43 Sur 0 -- -- 47
2021-02-23 13:00:00 14.5 26 Sur 40 Sudoeste 0 -- -- 47
2021-02-23 12:00:00 14.3 18 Sur 32 Sudoeste 0 -- -- 47
2021-02-23 11:00:00 13.1 14 Sudeste 24 Sudeste 0 -- -- 49
2021-02-23 10:00:00 11.8 13 Sudeste 24 Sudeste 0 -- -- 43
2021-02-23 09:00:00 9.8 14 Sur 24 Sur 0 -- -- 44
2021-02-23 08:00:00 8.3 11 Sur 21 Sur 0 -- -- 46
2021-02-23 07:00:00 6.4 3 Sudoeste 25 Sudoeste 0 -- -- 53
2021-02-23 06:00:00 7.6 7 Sudoeste 20 Sudeste 0 -- -- 48
2021-02-23 05:00:00 7.3 14 Sudoeste 24 Sur 0 -- -- 47
2021-02-23 04:00:00 7.5 8 Sur 26 Sur 0 -- -- 47
2021-02-23 03:00:00 7 14 Sudoeste 24 Sudoeste 0 -- -- 52
2021-02-23 02:00:00 6.2 18 Sudoeste 25 Sudoeste 0 -- -- 54
2021-02-23 01:00:00 6.8 15 Sudoeste 20 Sudoeste 0 -- -- 50
2021-02-23 00:00:00 7.5 15 Sur 22 Sudeste 0 -- -- 45
2021-02-22 23:00:00 6 10 Sudoeste 29 Sudeste 0 -- -- 53
2021-02-22 22:00:00 8.8 17 Sur 34 Sur 0 -- -- 42
2021-02-22 21:00:00 9.1 22 Sur 34 Sur 0 -- -- 40
2021-02-22 20:00:00 7.2 12 Sur 16 Sudoeste 0 -- -- 50
2021-02-22 19:00:00 7.5 8 Sudoeste 20 Sudoeste 0 -- -- 59
2021-02-22 18:00:00 10.1 12 Sudoeste 24 Sudoeste 0 -- -- 50
2021-02-22 17:00:00 12 12 Sudoeste 19 Sudoeste 0 -- -- 49
2021-02-22 16:00:00 11.4 5 Sudoeste 18 Sudoeste 0 -- -- 57
2021-02-22 15:00:00 10.3 7 Nordeste 14 Sur 0 -- -- 66
2021-02-22 14:00:00 9.4 9 Oeste 15 Oeste 0 -- -- 67
2021-02-22 13:00:00 7.9 5 Nordeste 14 Oeste 0 -- -- 74
2021-02-22 12:00:00 6.4 5 Sudoeste 12 Este 0 -- -- 84
2021-02-22 11:00:00 5.2 7 Sudeste 12 Sudeste 0 -- -- 85
2021-02-22 10:00:00 4.5 0 Calma 6 Este 0 -- -- 95
2021-02-22 09:00:00 2 5 Sudeste 8 Sudeste 0 -- -- 99
2021-02-22 08:00:00 1.4 4 Este 14 Sudoeste 0 -- -- 98
2021-02-22 07:00:00 1.7 0 Calma 11 Oeste 0 -- -- 98
2021-02-22 06:00:00 2.3 4 Oeste 9 Noroeste 0 -- -- 96
2021-02-22 05:00:00 1.8 5 Sudoeste 9 Oeste 0 -- -- 97
2021-02-22 04:00:00 2.2 3 Sudoeste 8 Sudoeste 0 -- -- 96
2021-02-22 03:00:00 2.2 2 Sudoeste 6 Sudoeste 0 -- -- 97
2021-02-22 02:00:00 1.9 4 Oeste 14 Sudoeste 0 -- -- 98
2021-02-22 01:00:00 2 9 Oeste 15 Sudoeste 0 -- -- 98
2021-02-22 00:00:00 2.2 8 Oeste 13 Oeste 0 -- -- 97
2021-02-21 23:00:00 2.7 9 Oeste 13 Oeste 0 -- -- 97
2021-02-21 22:00:00 3.1 8 Oeste 11 Oeste 0 -- -- 97
2021-02-21 21:00:00 3.4 0 Calma 4 Sudoeste 0 -- -- 96
2021-02-21 20:00:00 3.4 4 Oeste 9 Oeste 0.2 -- -- 97
2021-02-21 19:00:00 3.6 6 Sudoeste 26 Oeste 0.4 -- -- 97
2021-02-21 18:00:00 4.4 0 Calma 5 Este 0 -- -- 96
2021-02-21 17:00:00 4.1 2 Este 8 Este 0 -- -- 97
2021-02-21 16:00:00 3.8 4 Este 10 Oeste 0.2 -- -- 99
2021-02-21 15:00:00 3.4 4 Oeste 14 Este 0 -- -- 99
2021-02-21 14:00:00 2.6 11 Este 17 Este 0.4 -- -- 99
2021-02-21 13:00:00 1.4 9 Este 13 Este 0.8 -- -- 99
2021-02-21 12:00:00 1 7 Sur 35 Sudoeste 1 -- -- 98
2021-02-21 11:00:00 1.5 26 Sudoeste 37 Oeste 1.6 -- -- 98
2021-02-21 10:00:00 3.2 30 Oeste 39 Oeste 2 -- -- 98
2021-02-21 09:00:00 5 15 Oeste 21 Oeste 1.6 -- -- 97
2021-02-21 08:00:00 5.8 5 Oeste 15 Sudoeste 0.6 -- -- 93
2021-02-21 07:00:00 7 5 Oeste 28 Sur 0 -- -- 83
2021-02-21 06:00:00 8.2 10 Sudoeste 49 Sur 0 -- -- 67
2021-02-21 05:00:00 8.8 26 Sur 46 Sudoeste 0 -- -- 63
2021-02-21 04:00:00 8.1 15 Sudeste 46 Sudeste 0.2 -- -- 70
2021-02-21 03:00:00 7.9 21 Sur 38 Sur 0 -- -- 75
2021-02-21 02:00:00 6.6 4 Este 24 Sudeste 0.2 -- -- 87
2021-02-21 01:00:00 6.9 4 Sur 25 Sur 0.4 -- -- 86
2021-02-21 00:00:00 7.3 21 Sur 31 Sur 1 -- -- 85
2021-02-20 23:00:00 7.2 18 Sur 25 Sur 0.6 -- -- 88
2021-02-20 22:00:00 7.4 4 Sudeste 10 Sudeste 0.6 -- -- 92
2021-02-20 21:00:00 7.2 6 Este 31 Sudoeste 1.2 -- -- 96
2021-02-20 20:00:00 7.4 27 Sudoeste 44 Sudoeste 2.2 -- -- 91
2021-02-20 19:00:00 7.1 27 Sudoeste 46 Sudoeste 2.8 -- -- 95
2021-02-20 18:00:00 8.5 28 Sudoeste 44 Sudoeste 1.2 -- -- 91
2021-02-20 17:00:00 9.8 16 Sur 30 Sur 0 -- -- 78
2021-02-20 16:00:00 10.3 18 Sur 40 Sudeste 0 -- -- 73
2021-02-20 15:00:00 10.8 19 Sudeste 49 Sudeste 0 -- -- 72
2021-02-20 14:00:00 10.6 23 Sur 50 Sudeste 0 -- -- 73
2021-02-20 13:00:00 9.6 10 Sudeste 36 Sudeste 0.2 -- -- 81
2021-02-20 12:00:00 9.6 24 Sur 53 Sur 0.4 -- -- 81
2021-02-20 11:00:00 10.6 30 Sur 78 Sudoeste 0 -- -- 71
2021-02-20 10:00:00 12 36 Sur 84 Sudoeste 0 -- -- 61
2021-02-20 09:00:00 11.9 34 Sur 87 Sur 0 -- -- 58
2021-02-20 08:00:00 11.6 34 Sur 75 Sudoeste 0 -- -- 57
2021-02-20 07:00:00 11.7 39 Sur 77 Sudoeste 0 -- -- 60
2021-02-20 06:00:00 11.7 23 Sur 62 Sur 0 -- -- 59
2021-02-20 05:00:00 12 21 Sur 58 Sur 0 -- -- 57
2021-02-20 04:00:00 12 32 Sur 75 Sur 0 -- -- 57
2021-02-20 03:00:00 11.9 47 Sur 75 Sur 0 -- -- 58
2021-02-20 02:00:00 11.9 35 Sur 71 Sur 0 -- -- 59
2021-02-20 01:00:00 11.9 40 Sur 75 Sur 0 -- -- 58
2021-02-20 00:00:00 11.8 37 Sur 61 Sur 0 -- -- 60
2021-02-19 23:00:00 11.7 30 Sur 60 Sur 0 -- -- 61
2021-02-19 22:00:00 11.7 34 Sur 62 Sur 0 -- -- 62
2021-02-19 21:00:00 11.7 31 Sur 61 Sur 0 -- -- 64
2021-02-19 20:00:00 11.8 37 Sur 64 Sur 0 -- -- 63
2021-02-19 19:00:00 11.9 29 Sur 59 Sur 0 -- -- 63
2021-02-19 18:00:00 12.5 39 Sur 71 Sur 0 -- -- 60
2021-02-19 17:00:00 13 31 Sur 75 Sur 0 -- -- 57
2021-02-19 16:00:00 12.2 37 Sur 70 Sur 0 -- -- 62
2021-02-19 15:00:00 12.1 36 Sur 67 Sur 0 -- -- 62
2021-02-19 14:00:00 12.1 30 Sur 68 Sur 0 -- -- 60
2021-02-19 13:00:00 12.3 27 Sur 67 Sur 0 -- -- 62
2021-02-19 12:00:00 12.5 43 Sur 72 Sur 0 -- -- 59
2021-02-19 11:00:00 11 41 Sur 64 Sur 0 -- -- 63
2021-02-19 10:00:00 10.7 43 Sur 62 Sur 0 -- -- 65
2021-02-19 09:00:00 10.2 34 Sur 57 Sur 0 -- -- 64
2021-02-19 08:00:00 10 23 Sur 39 Sur 0 -- -- 63
2021-02-19 07:00:00 9.4 30 Sur 53 Sur 0 -- -- 67
2021-02-19 06:00:00 9.2 35 Sur 53 Sur 0 -- -- 67
2021-02-19 05:00:00 9 26 Sur 44 Sur 0 -- -- 69
2021-02-19 04:00:00 8.8 26 Sur 45 Sur 0 -- -- 69
2021-02-19 03:00:00 8.5 26 Sur 45 Sur 0 -- -- 69
2021-02-19 02:00:00 8.3 26 Sur 46 Sudeste 0 -- -- 67
2021-02-19 01:00:00 7.9 28 Sur 51 Sur 0 -- -- 69
2021-02-19 00:00:00 7.7 23 Sur 51 Sur 0 -- -- 72
2021-02-18 23:00:00 7.7 13 Sur 42 Sudoeste 0 -- -- 73
2021-02-18 22:00:00 7.7 13 Sur 36 Sudoeste 0 -- -- 74
2021-02-18 21:00:00 7.5 11 Sudoeste 27 Sudoeste 0 -- -- 78
2021-02-18 20:00:00 7.2 9 Sudoeste 34 Sudoeste 0 -- -- 82
2021-02-18 19:00:00 7.6 14 Sur 48 Sudoeste 0 -- -- 79
2021-02-18 18:00:00 7.9 25 Sudoeste 54 Sudoeste 0 -- -- 74
2021-02-18 17:00:00 7.9 26 Sudoeste 55 Sudoeste 0 -- -- 78
2021-02-18 16:00:00 7.8 34 Sudoeste 59 Sudoeste 0 -- -- 81
2021-02-18 15:00:00 7.2 9 Sudoeste 40 Sudoeste 0.2 -- -- 96
2021-02-18 14:00:00 5.9 16 Sudoeste 37 Sudoeste 0.6 -- -- 98
2021-02-18 13:00:00 5.8 9 Sudoeste 37 Sur 0.2 -- -- 98
2021-02-18 12:00:00 5.3 16 Oeste 34 Oeste 3.2 -- -- 98
2021-02-18 11:00:00 5.4 18 Sudoeste 38 Sudoeste 2.4 -- -- 97
2021-02-18 10:00:00 5.4 19 Oeste 55 Sudoeste 3.2 -- -- 97
2021-02-18 09:00:00 6.2 36 Sudoeste 50 Sudoeste 1.4 -- -- 94
2021-02-18 08:00:00 5.8 27 Sudoeste 63 Sudoeste 7.2 -- -- 95
2021-02-18 07:00:00 7.1 13 Sudoeste 45 Sudoeste 2.4 -- -- 96
2021-02-18 06:00:00 7.8 39 Sudoeste 75 Sudoeste 2.6 -- -- 92
2021-02-18 05:00:00 7.7 30 Oeste 65 Sudoeste 6.4 -- -- 95
2021-02-18 04:00:00 8.2 16 Sudoeste 63 Sudoeste 7.8 -- -- 94
2021-02-18 03:00:00 8.8 20 Sudoeste 56 Sudoeste 3 -- -- 89
2021-02-18 02:00:00 9.2 32 Sudoeste 70 Sudoeste 2 -- -- 83
2021-02-18 01:00:00 8.3 16 Sudoeste 49 Sudoeste 2.8 -- -- 92
2021-02-18 00:00:00 9.7 28 Sur 62 Sur 0.2 -- -- 77
2021-02-17 23:00:00 8.9 38 Sudoeste 67 Sudoeste 1.8 -- -- 88
2021-02-17 22:00:00 9.6 23 Sudoeste 53 Sudoeste 0.8 -- -- 87
2021-02-17 21:00:00 9.2 16 Sur 57 Sudoeste 2.8 -- -- 88
2021-02-17 20:00:00 9.7 24 Sudoeste 45 Sur 1.2 -- -- 85
2021-02-17 19:00:00 11.5 27 Sur 61 Sur 0 -- -- 69
2021-02-17 18:00:00 12 25 Sur 44 Sur 0 -- -- 64
2021-02-17 17:00:00 12.3 23 Sur 45 Sudoeste 0 -- -- 64
2021-02-17 16:00:00 12.4 27 Sudoeste 64 Sudoeste 0 -- -- 60
2021-02-17 15:00:00 12.7 40 Sudoeste 66 Sudoeste 0 -- -- 54
2021-02-17 14:00:00 12.1 28 Sudoeste 75 Sudoeste 0 -- -- 55
2021-02-17 13:00:00 12.2 23 Sudoeste 47 Sur 0 -- -- 57
2021-02-17 12:00:00 11.3 20 Sur 38 Sudeste 0 -- -- 63
2021-02-17 11:00:00 9.8 15 Sur 33 Sudeste 0 -- -- 65
2021-02-17 10:00:00 9.1 16 Sur 34 Sur 0 -- -- 62
2021-02-17 09:00:00 7.7 18 Sur 37 Sudeste 0 -- -- 67
2021-02-17 08:00:00 7.5 22 Sur 35 Sur 0 -- -- 68
2021-02-17 07:00:00 7.4 14 Sur 37 Sur 0 -- -- 68
2021-02-17 06:00:00 7.5 18 Sur 32 Sur 0 -- -- 67
2021-02-17 05:00:00 7.2 17 Sur 32 Sur 0 -- -- 66
2021-02-17 04:00:00 7.2 15 Sur 32 Sur 0 -- -- 64
2021-02-17 03:00:00 6.6 16 Sur 26 Sur 0 -- -- 65
2021-02-17 02:00:00 6.8 18 Sur 33 Sur 0 -- -- 67
2021-02-17 01:00:00 6.9 18 Sur 31 Sudeste 0 -- -- 68
2021-02-17 00:00:00 6.7 16 Sur 26 Sur 0 -- -- 73
2021-02-16 23:00:00 5.9 5 Sudoeste 20 Sudoeste 0 -- -- 81
2021-02-16 22:00:00 6.7 13 Sudoeste 21 Sudoeste 0 -- -- 80
2021-02-16 21:00:00 7.2 7 Sudoeste 25 Sudoeste 0 -- -- 75
2021-02-16 20:00:00 8.2 15 Sudoeste 38 Sudoeste 0 -- -- 71
2021-02-16 19:00:00 8.9 23 Sudoeste 44 Sudoeste 0 -- -- 67
2021-02-16 18:00:00 9.7 13 Sudoeste 49 Sudoeste 0 -- -- 67
2021-02-16 17:00:00 10.3 27 Sudoeste 49 Sudoeste 0 -- -- 63
2021-02-16 16:00:00 10.7 24 Sudoeste 41 Sudoeste 0 -- -- 70
2021-02-16 15:00:00 9 19 Sudoeste 36 Sudoeste 0 -- -- 83
2021-02-16 14:00:00 8.4 18 Sudoeste 41 Sudoeste 0.2 -- -- 90
2021-02-16 13:00:00 7.8 20 Sudoeste 42 Sur 0.2 -- -- 92
2021-02-16 12:00:00 7.1 14 Sudoeste 44 Oeste 0.6 -- -- 94
2021-02-16 11:00:00 7 22 Sudoeste 58 Oeste 2.6 -- -- 94
2021-02-16 10:00:00 7.8 21 Sudoeste 63 Sudoeste 2.4 -- -- 90
2021-02-16 09:00:00 11 30 Sur 64 Sur 0 -- -- 62
2021-02-16 08:00:00 10.6 32 Sur 66 Sur 0 -- -- 58
2021-02-16 07:00:00 10.9 31 Sudoeste 67 Sudoeste 0 -- -- 58
2021-02-16 06:00:00 11.2 24 Sur 48 Sur 0 -- -- 58
2021-02-16 05:00:00 11.6 26 Sur 57 Sudoeste 0 -- -- 58
2021-02-16 04:00:00 11.7 25 Sur 58 Sur 0 -- -- 58
2021-02-16 03:00:00 12.1 25 Sudoeste 58 Sudoeste 0 -- -- 54
2021-02-16 02:00:00 12.6 25 Sur 59 Sudoeste 0 -- -- 50
2021-02-16 01:00:00 13 23 Sur 51 Sur 0 -- -- 47
2021-02-16 00:00:00 13.5 22 Sur 46 Sur 0 -- -- 43
2021-02-15 23:00:00 14 27 Sur 45 Sur 0 -- -- 41
2021-02-15 22:00:00 14.3 26 Sur 40 Sur 0 -- -- 39
2021-02-15 21:00:00 14.5 28 Sur 47 Sur 0 -- -- 40
2021-02-15 20:00:00 15.4 35 Sur 57 Sur 0 -- -- 38
2021-02-15 19:00:00 15.6 31 Sur 47 Sur 0 -- -- 38
2021-02-15 18:00:00 16.7 27 Sur 55 Sudoeste 0 -- -- 35
2021-02-15 17:00:00 17.4 13 Sur 45 Sur 0 -- -- 39
2021-02-15 16:00:00 17.2 28 Sur 48 Sur 0 -- -- 36
2021-02-15 15:00:00 19 22 Sur 45 Sur 0 -- -- 31
2021-02-15 14:00:00 19 23 Sur 40 Sudoeste 0 -- -- 30
2021-02-15 13:00:00 18 18 Sur 32 Sudoeste 0 -- -- 29
2021-02-15 12:00:00 16.4 13 Sur 32 Sur 0 -- -- 28
2021-02-15 11:00:00 13.9 10 Sur 26 Sudeste 0 -- -- 40
2021-02-15 10:00:00 12.7 18 Sur 26 Sur 0 -- -- 34
2021-02-15 09:00:00 12.7 10 Sur 35 Sur 0 -- -- 27
2021-02-15 08:00:00 13.7 17 Sur 35 Sur 0 -- -- 21
2021-02-15 07:00:00 13.7 24 Sur 56 Sur 0 -- -- 23
2021-02-15 06:00:00 13.7 28 Sur 51 Sudoeste 0 -- -- 26
2021-02-15 05:00:00 14 31 Sur 55 Sur 0 -- -- 24
2021-02-15 04:00:00 14 32 Sur 55 Sur 0 -- -- 25
2021-02-15 03:00:00 14 34 Sur 67 Sudeste 0 -- -- 27
2021-02-15 02:00:00 13.6 28 Sur 53 Sur 0 -- -- 33
2021-02-15 01:00:00 13.8 31 Sur 46 Sur 0 -- -- 37
2021-02-15 00:00:00 13.8 27 Sur 46 Sur 0 -- -- 40
2021-02-14 23:00:00 14 28 Sur 42 Sur 0 -- -- 39
2021-02-14 22:00:00 13 17 Sur 37 Sur 0 -- -- 45
2021-02-14 21:00:00 13 18 Sur 32 Sur 0 -- -- 44
2021-02-14 20:00:00 13.2 14 Sudeste 31 Sur 0 -- -- 43
2021-02-14 19:00:00 14.1 20 Sur 34 Sur 0 -- -- 42
2021-02-14 18:00:00 15 23 Sur 45 Sur 0 -- -- 42
2021-02-14 17:00:00 15.5 20 Sur 39 Sudoeste 0 -- -- 40
2021-02-14 16:00:00 16.3 17 Sur 44 Sur 0 -- -- 39
2021-02-14 15:00:00 15.7 22 Sudoeste 44 Sudoeste 0 -- -- 43
2021-02-14 14:00:00 15.7 23 Sudoeste 45 Sur 0 -- -- 39
2021-02-14 13:00:00 16 20 Sur 37 Sudoeste 0 -- -- 46
2021-02-14 12:00:00 14.5 14 Sur 28 Sudoeste 0 -- -- 53
2021-02-14 11:00:00 14 14 Sudeste 22 Sudeste 0 -- -- 56
2021-02-14 10:00:00 12.7 11 Sudoeste 35 Sur 0 -- -- 59
2021-02-14 09:00:00 11.3 15 Sur 22 Sur 0 -- -- 61
2021-02-14 08:00:00 9.4 5 Sudoeste 14 Sudoeste 0 -- -- 71
2021-02-14 07:00:00 10.2 10 Sur 22 Sur 0 -- -- 70
2021-02-14 06:00:00 10.5 13 Sur 26 Sur 0 -- -- 72
2021-02-14 05:00:00 8.8 10 Sur 20 Sur 0 -- -- 78
2021-02-14 04:00:00 8.7 8 Sudoeste 18 Sudoeste 0 -- -- 80
2021-02-14 03:00:00 8.9 8 Sur 14 Sur 0 -- -- 79
2021-02-14 02:00:00 8.8 9 Sudoeste 20 Sur 0 -- -- 80
2021-02-14 01:00:00 8.9 8 Sudoeste 14 Sudoeste 0 -- -- 80
2021-02-14 00:00:00 10.4 11 Sudeste 23 Sur 0 -- -- 75
2021-02-13 23:00:00 9.9 4 Sudeste 16 Oeste 0 -- -- 80
2021-02-13 22:00:00 9.7 8 Oeste 13 Sudeste 0 -- -- 81
2021-02-13 21:00:00 10.3 9 Sudeste 18 Sur 0 -- -- 79
2021-02-13 20:00:00 10.4 10 Sudeste 19 Sur 0 -- -- 84
2021-02-13 19:00:00 10.9 6 Sur 23 Sur 0 -- -- 84
2021-02-13 18:00:00 11.1 15 Sur 23 Sudoeste 0 -- -- 85
2021-02-13 17:00:00 11.1 13 Sudoeste 26 Sudoeste 0 -- -- 85
2021-02-13 16:00:00 11.4 14 Sudoeste 40 Sudoeste 0 -- -- 81
2021-02-13 15:00:00 11.9 14 Sudoeste 39 Oeste 0.2 -- -- 77
2021-02-13 14:00:00 12.7 19 Sudoeste 36 Sudoeste 0 -- -- 76
2021-02-13 13:00:00 11.9 22 Sudoeste 35 Sudoeste 0 -- -- 81
2021-02-13 08:00:00 -- -- -- -- -- -- -- -- --
2021-02-13 07:00:00 6.2 3 Oeste 22 Sudoeste 0 -- -- 76
2021-02-13 06:00:00 5.9 7 Sur 28 Sudoeste 0 -- -- 83
2021-02-13 05:00:00 5.8 17 Sudoeste 21 Sudoeste 0 -- -- 86
2021-02-13 04:00:00 5.9 2 Sudoeste 23 Sudoeste 0 -- -- 82
2021-02-13 03:00:00 5.8 5 Sudoeste 20 Sudoeste 0 -- -- 86
2021-02-13 02:00:00 6.1 4 Sur 10 Sudeste 0 -- -- 83
2021-02-13 01:00:00 6.1 0 Calma 14 Sudoeste 0 -- -- 87
2021-02-13 00:00:00 6.9 12 Sudoeste 16 Sudoeste 0 -- -- 86
2021-02-12 23:00:00 7.1 8 Sudoeste 27 Sur 0 -- -- 84
2021-02-12 22:00:00 7.4 5 Sudoeste 16 Oeste 0 -- -- 83
2021-02-12 21:00:00 7.7 7 Sur 19 Sur 0 -- -- 82
2021-02-12 20:00:00 8 12 Sudoeste 23 Sudoeste 0 -- -- 84
2021-02-12 19:00:00 8.4 12 Sudoeste 24 Sudoeste 0 -- -- 86
2021-02-12 18:00:00 10.1 18 Sudoeste 26 Sudoeste 0 -- -- 76
2021-02-12 17:00:00 10.8 16 Sudoeste 35 Sudoeste 0 -- -- 75
2021-02-12 16:00:00 11.2 21 Sudoeste 28 Sudoeste 0 -- -- 75
2021-02-12 15:00:00 9.2 14 Sudoeste 23 Sudoeste 0 -- -- 84
2021-02-12 14:00:00 9.2 10 Sudoeste 26 Sudoeste 0 -- -- 88
2021-02-12 13:00:00 8 15 Oeste 32 Sudoeste 0 -- -- 91
2021-02-12 12:00:00 8.2 12 Sudoeste 30 Oeste 0 -- -- 94
2021-02-12 11:00:00 7.2 18 Sudoeste 40 Oeste 0.2 -- -- 97
2021-02-12 10:00:00 7.1 15 Oeste 38 Oeste 0 -- -- 97
2021-02-12 09:00:00 6.9 27 Sudoeste 49 Oeste 0.6 -- -- 97
2021-02-12 08:00:00 6.9 18 Oeste 44 Oeste 1.6 -- -- 98
2021-02-12 07:00:00 6.8 13 Sudoeste 41 Sudoeste 3.8 -- -- 97
2021-02-12 06:00:00 7.4 17 Oeste 43 Sudoeste 2.8 -- -- 97
2021-02-12 05:00:00 7.6 13 Oeste 68 Sudoeste 0.8 -- -- 96
2021-02-12 04:00:00 8.6 29 Sudoeste 52 Sudoeste 0.6 -- -- 96
2021-02-12 03:00:00 8.3 10 Sudoeste 16 Sudoeste 0.8 -- -- 98
2021-02-12 02:00:00 8.2 4 Sur 12 Sur 0.2 -- -- 95
2021-02-12 01:00:00 8.5 4 Este 29 Sudoeste 1.6 -- -- 95
2021-02-12 00:00:00 9 22 Sudoeste 45 Sudoeste 2.2 -- -- 95
2021-02-11 23:00:00 9.3 6 Sur 15 Sudoeste 1.4 -- -- 96
2021-02-11 22:00:00 9.4 8 Sudoeste 44 Oeste 3.4 -- -- 96
2021-02-11 21:00:00 10.6 26 Oeste 40 Oeste 1.2 -- -- 90
2021-02-11 20:00:00 11.4 13 Sur 29 Sur 0 -- -- 87
2021-02-11 19:00:00 11.2 10 Sudoeste 33 Sur 0.2 -- -- 90
2021-02-11 18:00:00 12.7 10 Sudoeste 30 Sudoeste 0 -- -- 78
2021-02-11 17:00:00 13 14 Sur 53 Sudoeste 0 -- -- 77
2021-02-11 16:00:00 13.5 17 Sur 40 Sur 0 -- -- 73
2021-02-11 15:00:00 12.6 14 Sudoeste 47 Sudoeste 0 -- -- 79
2021-02-11 14:00:00 13.1 19 Sur 40 Sudoeste 0 -- -- 73
2021-02-11 13:00:00 12.8 16 Sur 33 Sur 0 -- -- 74
2021-02-11 12:00:00 12.1 18 Sur 38 Sur 0 -- -- 79
2021-02-11 11:00:00 11.5 16 Sur 34 Sudoeste 0 -- -- 81
2021-02-11 10:00:00 10.9 19 Sur 39 Sudoeste 0.2 -- -- 84
2021-02-11 09:00:00 10.7 18 Sur 39 Sudoeste 0 -- -- 85
2021-02-11 08:00:00 10.8 10 Sur 35 Sudoeste 0 -- -- 86
2021-02-11 07:00:00 10.5 19 Sudoeste 46 Sudoeste 0 -- -- 88
2021-02-11 06:00:00 10 28 Sudoeste 45 Sudoeste 0 -- -- 93
2021-02-11 05:00:00 9.8 28 Sudoeste 50 Sudoeste 0 -- -- 93
2021-02-11 04:00:00 9.5 17 Sudoeste 45 Sudoeste 0.2 -- -- 95
2021-02-11 03:00:00 9.4 16 Sudoeste 38 Sudoeste 0 -- -- 93
2021-02-11 02:00:00 8.7 15 Sur 28 Sur 0 -- -- 94
2021-02-11 01:00:00 6.8 14 Sudeste 26 Sudeste 0 -- -- 98
2021-02-11 00:00:00 6.1 10 Este 21 Sur 0 -- -- 90
2021-02-10 23:00:00 7.4 10 Sudoeste 19 Sur 0 -- -- 71
2021-02-10 22:00:00 7.6 9 Sudoeste 22 Oeste 0 -- -- 62
2021-02-10 21:00:00 7.3 8 Sudeste 15 Sudoeste 0 -- -- 58
2021-02-10 20:00:00 7.2 3 Oeste 11 Oeste 0 -- -- 59
2021-02-10 19:00:00 7.5 4 Oeste 15 Sur 0 -- -- 69
2021-02-10 18:00:00 8.5 10 Sudoeste 23 Sudoeste 0 -- -- 69
2021-02-10 17:00:00 9.6 19 Sudoeste 32 Sudoeste 0 -- -- 67
2021-02-10 16:00:00 8.9 21 Sudoeste 30 Sudoeste 0 -- -- 72
2021-02-10 15:00:00 7.5 20 Sudoeste 31 Sudoeste 0 -- -- 79
2021-02-10 14:00:00 5.8 14 Sudoeste 30 Sudoeste 0 -- -- 87
2021-02-10 13:00:00 5.3 13 Sudoeste 30 Sudoeste 0 -- -- 89
2021-02-10 12:00:00 4.8 16 Sudoeste 31 Sudoeste 0 -- -- 93
2021-02-10 11:00:00 4 19 Sudoeste 31 Sur 0 -- -- 95
2021-02-10 10:00:00 3.4 17 Sudoeste 33 Sudoeste 0 -- -- 96
2021-02-10 09:00:00 3.1 17 Sudoeste 42 Sudoeste 0.4 -- -- 96
2021-02-10 08:00:00 2.8 23 Sudoeste 42 Sudoeste 0.2 -- -- 96
2021-02-10 07:00:00 2.8 28 Sudoeste 37 Sudoeste 0.4 -- -- 97
2021-02-10 06:00:00 2.9 21 Sudoeste 32 Sudoeste 0.4 -- -- 97
2021-02-10 05:00:00 3.1 22 Sudoeste 42 Oeste 0.2 -- -- 98
2021-02-10 04:00:00 3.3 23 Sudoeste 43 Sudoeste 0.2 -- -- 98
2021-02-10 03:00:00 3.3 17 Sudoeste 48 Oeste 0.2 -- -- 96
2021-02-10 02:00:00 2.5 19 Sudoeste 33 Sudoeste 2.6 -- -- 98
2021-02-10 01:00:00 2.6 23 Sudoeste 39 Sudoeste 2.2 -- -- 97
2021-02-10 00:00:00 3.2 20 Sudoeste 36 Sudoeste 3 -- -- 94
2021-02-09 23:00:00 3.9 24 Sudoeste 50 Sudoeste 0.8 -- -- 92
2021-02-09 22:00:00 4.3 30 Sudoeste 51 Sudoeste 0 -- -- 88
2021-02-09 21:00:00 3.8 32 Sudoeste 53 Sudoeste 0.6 -- -- 92
2021-02-09 20:00:00 2.9 12 Sur 28 Sudoeste 0.2 -- -- 93
2021-02-09 19:00:00 2 18 Sur 34 Sudoeste 2 -- -- 96
2021-02-09 18:00:00 3.1 29 Sudoeste 74 Sudoeste 1.6 -- -- 92
2021-02-09 17:00:00 4.7 20 Sudoeste 55 Sudoeste 1 -- -- 87
2021-02-09 16:00:00 5.3 21 Sudoeste 61 Sudoeste 0 -- -- 84
2021-02-09 15:00:00 6.4 29 Sudoeste 54 Sudoeste 0 -- -- 75
2021-02-09 14:00:00 5.4 30 Sudoeste 77 Sudoeste 0 -- -- 83
2021-02-09 13:00:00 4.9 35 Sudoeste 76 Sudoeste 0.2 -- -- 89
2021-02-09 12:00:00 4.5 46 Sudoeste 68 Sudoeste 0 -- -- 89
2021-02-09 11:00:00 3.9 41 Sudoeste 66 Sudoeste 0.2 -- -- 92
2021-02-09 10:00:00 3.3 29 Sur 60 Sudoeste 2.4 -- -- 97
2021-02-09 09:00:00 4.3 48 Sudoeste 85 Sudoeste 5.6 -- -- 94
2021-02-09 08:00:00 5.3 27 Sur 68 Sudoeste 4.8 -- -- 95
2021-02-09 07:00:00 6.4 31 Sur 61 Sur 1.4 -- -- 90
2021-02-09 06:00:00 6.9 33 Sur 59 Sur 0 -- -- 81
2021-02-09 05:00:00 7.2 32 Sur 69 Sudoeste 0.2 -- -- 80
2021-02-09 04:00:00 6.8 33 Sur 63 Sur 0 -- -- 81
2021-02-09 03:00:00 6.1 23 Sur 49 Sur 0.2 -- -- 87
2021-02-09 02:00:00 5.6 21 Sur 40 Sudoeste 0.6 -- -- 89
2021-02-09 01:00:00 5.1 9 Sur 52 Sudoeste 0.4 -- -- 90
2021-02-09 00:00:00 5.3 24 Sudoeste 55 Sudoeste 0.4 -- -- 88
2021-02-08 23:00:00 5.4 37 Sudoeste 65 Sudoeste 0 -- -- 93
2021-02-08 22:00:00 5.7 36 Sudoeste 57 Sudoeste 0 -- -- 94
2021-02-08 21:00:00 5.8 26 Sudoeste 41 Sudoeste 0.2 -- -- 97
2021-02-08 20:00:00 5.9 23 Sudoeste 40 Sudoeste 0.4 -- -- 98
2021-02-08 19:00:00 5.9 23 Sudoeste 40 Oeste 0.2 -- -- 96
2021-02-08 18:00:00 6.3 20 Sudoeste 31 Oeste 0 -- -- 93
2021-02-08 17:00:00 6.4 22 Oeste 53 Oeste 0 -- -- 91
2021-02-08 16:00:00 5.5 22 Sudoeste 35 Sudoeste 2.2 -- -- 97
2021-02-08 15:00:00 5.6 16 Sudoeste 41 Sudoeste 0.4 -- -- 96
2021-02-08 14:00:00 4.9 33 Sudoeste 53 Sudoeste 0.4 -- -- 95
2021-02-08 13:00:00 5.5 22 Sudoeste 52 Sudoeste 0.2 -- -- 93
2021-02-08 12:00:00 4.5 33 Sudoeste 49 Sudoeste 1.8 -- -- 98
2021-02-08 11:00:00 4.8 21 Sudoeste 37 Sudoeste 0 -- -- 97
2021-02-08 10:00:00 4.2 17 Sudoeste 48 Sudoeste 0.6 -- -- 98
2021-02-08 09:00:00 4 31 Sudoeste 44 Sudoeste 0.4 -- -- 97
2021-02-08 08:00:00 3.9 29 Sudoeste 52 Sudoeste 0.6 -- -- 97
2021-02-08 07:00:00 4.6 23 Sudoeste 39 Sudoeste 0.4 -- -- 98
2021-02-08 06:00:00 4.5 21 Sudoeste 37 Sudoeste 0.6 -- -- 98
2021-02-08 05:00:00 4.6 22 Sudoeste 46 Sur 1 -- -- 98
2021-02-08 04:00:00 5 20 Sudoeste 44 Sudoeste 0 -- -- 97
2021-02-08 03:00:00 5.1 27 Sudoeste 40 Sudoeste 0.4 -- -- 98
2021-02-08 02:00:00 5.1 23 Sudoeste 52 Sudoeste 2.2 -- -- 97
2021-02-08 01:00:00 6.2 24 Sudoeste 52 Sudoeste 1.2 -- -- 94
2021-02-08 00:00:00 6.1 26 Sur 57 Sudoeste 0.8 -- -- 92
2021-02-07 23:00:00 7.1 26 Sur 49 Sur 1.2 -- -- 92
2021-02-07 22:00:00 6.9 17 Sudoeste 43 Sudoeste 0.8 -- -- 93
2021-02-07 21:00:00 7.3 24 Sudoeste 54 Sudoeste 0.4 -- -- 89
2021-02-07 20:00:00 7.2 32 Sudoeste 58 Sudoeste 0 -- -- 89
2021-02-07 19:00:00 7 28 Sudoeste 59 Sudoeste 0 -- -- 88
2021-02-07 18:00:00 6.3 29 Sudoeste 48 Sudoeste 0 -- -- 91
2021-02-07 17:00:00 5.4 20 Sudoeste 42 Sudoeste 0.2 -- -- 94
2021-02-07 16:00:00 4.6 20 Sudoeste 46 Sudoeste 0.2 -- -- 96
2021-02-07 15:00:00 3.6 5 Sudeste 22 Sur 0.2 -- -- 96
2021-02-07 14:00:00 2.9 6 Este 23 Sur 0.4 -- -- 96
2021-02-07 13:00:00 2.4 6 Sur 24 Sudoeste 1 -- -- 95
2021-02-07 12:00:00 1.9 3 Sudeste 10 Sudeste 0.8 -- -- 94
2021-02-07 11:00:00 1.7 4 Sudoeste 15 Sudeste 0.2 -- -- 92
2021-02-07 10:00:00 1.2 9 Sudoeste 18 Sur 0 -- -- 91
2021-02-07 09:00:00 -0.2 7 Sudoeste 11 Sudoeste 0 -- -- 100
2021-02-07 08:00:00 -0.8 4 Oeste 13 Noroeste 0 -- -- 100
2021-02-07 07:00:00 -1.1 2 Sudoeste 7 Oeste 0 -- -- 100
2021-02-07 06:00:00 -1.4 3 Oeste 13 Oeste 0 -- -- 100
2021-02-07 05:00:00 -0.6 3 Oeste 14 Oeste 0 -- -- 99
2021-02-07 04:00:00 -0.1 5 Oeste 7 Oeste 0 -- -- 98
2021-02-07 03:00:00 -0.2 5 Oeste 8 Oeste 0 -- -- 99
2021-02-07 02:00:00 0.8 0 Calma 8 Este 0 -- -- 97
2021-02-07 01:00:00 1 4 Oeste 6 Oeste 0 -- -- 97
2021-02-07 00:00:00 1 0 Calma 7 Oeste 0 -- -- 97
2021-02-06 23:00:00 1 3 Noroeste 12 Nordeste 0 -- -- 96
2021-02-06 22:00:00 1 6 Oeste 10 Oeste 0 -- -- 96
2021-02-06 21:00:00 1 6 Oeste 11 Noroeste 0 -- -- 92
2021-02-06 20:00:00 1.7 3 Oeste 17 Oeste 0 -- -- 92
2021-02-06 19:00:00 2.3 5 Norte 21 Noroeste 0 -- -- 93
2021-02-06 18:00:00 3.1 4 Sudeste 18 Oeste 0 -- -- 94
2021-02-06 17:00:00 3.1 7 Noroeste 28 Noroeste 0 -- -- 94
2021-02-06 16:00:00 3.9 6 Nordeste 24 Nordeste 0 -- -- 96
2021-02-06 15:00:00 3.9 9 Norte 26 Noroeste 0 -- -- 97
2021-02-06 14:00:00 4.4 9 Nordeste 25 Norte 0 -- -- 98
2021-02-06 13:00:00 4.2 10 Nordeste 24 Norte 0 -- -- 100
2021-02-06 12:00:00 4.1 14 Norte 28 Nordeste 0.2 -- -- 99
2021-02-06 11:00:00 4 6 Nordeste 18 Norte 0 -- -- 99
2021-02-06 10:00:00 3.3 5 Noroeste 19 Norte 0 -- -- 99
2021-02-06 09:00:00 2.9 6 Norte 20 Nordeste 0 -- -- 99
2021-02-06 08:00:00 2.7 12 Nordeste 19 Norte 0 -- -- 99
2021-02-06 07:00:00 2.8 12 Nordeste 20 Nordeste 0.4 -- -- 99
2021-02-06 06:00:00 2.9 19 Nordeste 30 Nordeste 1.4 -- -- 98
2021-02-06 05:00:00 3.3 19 Nordeste 31 Norte 1.2 -- -- 97
2021-02-06 04:00:00 3.9 21 Nordeste 33 Nordeste 0.2 -- -- 98
2021-02-06 03:00:00 4.2 19 Nordeste 33 Nordeste 0 -- -- 99
2021-02-06 02:00:00 4.2 17 Nordeste 33 Nordeste 0.2 -- -- 99
2021-02-06 01:00:00 4.3 9 Nordeste 24 Nordeste 0.6 -- -- 99
2021-02-06 00:00:00 4.4 9 Norte 19 Nordeste 0.8 -- -- 99
2021-02-05 23:00:00 4.5 10 Norte 19 Nordeste 0.6 -- -- 99
2021-02-05 22:00:00 4.7 12 Nordeste 21 Nordeste 0.2 -- -- 99
2021-02-05 21:00:00 4.7 9 Nordeste 20 Nordeste 0.2 -- -- 99
2021-02-05 20:00:00 5 5 Nordeste 25 Nordeste 0.6 -- -- 99
2021-02-05 19:00:00 5.1 14 Nordeste 25 Nordeste 0.6 -- -- 99
2021-02-05 18:00:00 5.6 11 Nordeste 20 Nordeste 1 -- -- 99
2021-02-05 17:00:00 6 8 Nordeste 18 Norte 0.2 -- -- 97
2021-02-05 16:00:00 6.1 8 Nordeste 18 Nordeste 0.2 -- -- 98
2021-02-05 15:00:00 6.2 10 Nordeste 17 Norte 0.6 -- -- 97
2021-02-05 14:00:00 6.4 9 Norte 16 Norte 0 -- -- 96
2021-02-05 13:00:00 5.8 8 Norte 14 Norte 0 -- -- 99
2021-02-05 12:00:00 5.3 8 Norte 15 Norte 0 -- -- 100
2021-02-05 11:00:00 4.7 7 Nordeste 13 Noroeste 0 -- -- 100
2021-02-05 10:00:00 4.1 5 Norte 13 Norte 0 -- -- 100
2021-02-05 09:00:00 3.6 6 Noroeste 14 Norte 0 -- -- 100
2021-02-05 08:00:00 3.4 8 Norte 12 Norte 0 -- -- 99
2021-02-05 07:00:00 3.1 3 Norte 6 Noroeste 0 -- -- 97
2021-02-05 06:00:00 3.6 4 Sudoeste 6 Este 0 -- -- 94
2021-02-05 05:00:00 4.2 4 Este 6 Sudoeste 0 -- -- 92
2021-02-05 04:00:00 4.3 0 Calma 5 Norte 0 -- -- 91
2021-02-05 03:00:00 4.1 5 Este 6 Este 0 -- -- 92
2021-02-05 02:00:00 5.3 0 Calma 6 Noroeste 0 -- -- 90
2021-02-05 01:00:00 5.4 0 Calma 5 Sudoeste 0 -- -- 89
2021-02-05 00:00:00 5.4 3 Oeste 7 Oeste 0 -- -- 88
2021-02-04 23:00:00 5.9 0 Calma 5 Este 0 -- -- 85
2021-02-04 22:00:00 5.9 0 Calma 6 Nordeste 0 -- -- 88
2021-02-04 21:00:00 6.4 3 Sudeste 6 Sudeste 0 -- -- 84
2021-02-04 20:00:00 6.9 4 Norte 6 Noroeste 0 -- -- 82
2021-02-04 19:00:00 7.1 2 Oeste 5 Oeste 0 -- -- 83
2021-02-04 18:00:00 8.2 2 Oeste 5 Nordeste 0 -- -- 81
2021-02-04 17:00:00 8.6 4 Nordeste 6 Nordeste 0 -- -- 81
2021-02-04 16:00:00 8.6 0 Calma 6 Sur 0 -- -- 83
2021-02-04 15:00:00 8.2 3 Este 9 Oeste 0 -- -- 83
2021-02-04 14:00:00 8.2 3 Nordeste 9 Noroeste 0 -- -- 84
2021-02-04 13:00:00 8.3 3 Norte 12 Oeste 0 -- -- 81
2021-02-04 12:00:00 8.1 4 Sudoeste 9 Sudoeste 0 -- -- 79
2021-02-04 11:00:00 7.5 4 Sudeste 9 Sudeste 0 -- -- 75
2021-02-04 10:00:00 7.3 8 Sur 15 Sur 0 -- -- 77
2021-02-04 09:00:00 7 8 Sudoeste 30 Sudeste 0 -- -- 75
2021-02-04 08:00:00 6.9 13 Sur 26 Sur 0 -- -- 75
2021-02-04 07:00:00 7.1 15 Sur 23 Sudoeste 0 -- -- 74
2021-02-04 06:00:00 7.2 12 Sudoeste 32 Sudoeste 0 -- -- 74
2021-02-04 05:00:00 7.5 17 Sudoeste 35 Sudoeste 0 -- -- 70
2021-02-04 04:00:00 7.6 21 Sur 37 Sudoeste 0 -- -- 68
2021-02-04 03:00:00 7.3 15 Sur 36 Sur 0 -- -- 72
2021-02-04 02:00:00 7.1 17 Sudoeste 35 Sudoeste 0 -- -- 73
2021-02-04 01:00:00 7.2 20 Sudoeste 56 Sudoeste 0 -- -- 72
2021-02-04 00:00:00 7.5 29 Sudoeste 51 Sudoeste 0 -- -- 72
2021-02-03 23:00:00 7.3 18 Sudoeste 48 Sudoeste 0 -- -- 77
2021-02-03 22:00:00 7.2 22 Sudoeste 38 Oeste 0 -- -- 78
2021-02-03 21:00:00 6.8 16 Sur 37 Sudoeste 0.2 -- -- 83
2021-02-03 20:00:00 6.7 25 Sudoeste 41 Sudoeste 0.6 -- -- 87
2021-02-03 19:00:00 7.8 22 Sur 52 Sudoeste 0 -- -- 79
2021-02-03 18:00:00 8.8 23 Sur 40 Sudoeste 0 -- -- 71
2021-02-03 17:00:00 9.2 30 Sudoeste 50 Oeste 0 -- -- 70
2021-02-03 16:00:00 9.4 26 Sudoeste 58 Sudoeste 0 -- -- 69
2021-02-03 15:00:00 10.3 27 Sur 59 Sudoeste 0 -- -- 67
2021-02-03 14:00:00 9.8 21 Sur 56 Sudoeste 0 -- -- 67
2021-02-03 13:00:00 9.6 24 Sudoeste 58 Sudoeste 0 -- -- 68
2021-02-03 12:00:00 8.3 28 Sudoeste 55 Sudoeste 0.2 -- -- 79
2021-02-03 11:00:00 7.3 24 Sudoeste 55 Oeste 0.2 -- -- 83
2021-02-03 10:00:00 6.4 23 Sudoeste 53 Sudoeste 0 -- -- 86
2021-02-03 09:00:00 5.6 30 Sudoeste 62 Sudoeste 0.2 -- -- 90
2021-02-03 08:00:00 5.3 37 Sudoeste 71 Oeste 2.8 -- -- 93
2021-02-03 07:00:00 6.7 28 Sudoeste 62 Sudoeste 0.6 -- -- 91
2021-02-03 06:00:00 7 34 Sudoeste 58 Sudoeste 0 -- -- 85
2021-02-03 05:00:00 7 27 Sudoeste 62 Sudoeste 0.2 -- -- 89
2021-02-03 04:00:00 7.7 29 Sudoeste 67 Sudoeste 4.4 -- -- 95
2021-02-03 03:00:00 8.6 38 Sudoeste 80 Sudoeste 0.8 -- -- 94
2021-02-03 02:00:00 9.4 46 Sudoeste 79 Sudoeste 0 -- -- 91
2021-02-03 01:00:00 9.2 41 Sudoeste 82 Sudoeste 2 -- -- 96
2021-02-03 00:00:00 9.9 23 Sudoeste 53 Oeste 1.6 -- -- 97
2021-02-02 23:00:00 10.8 22 Sur 55 Sur 1 -- -- 90
2021-02-02 22:00:00 10.6 26 Sur 62 Sudeste 0.8 -- -- 90
2021-02-02 21:00:00 10.4 30 Sur 56 Sur 0.4 -- -- 86
2021-02-02 20:00:00 9.7 31 Sur 57 Sur 1 -- -- 85
2021-02-02 19:00:00 9.4 31 Sur 46 Sudoeste 0.6 -- -- 82
2021-02-02 18:00:00 9.8 14 Sur 54 Sudoeste 2.4 -- -- 93
2021-02-02 17:00:00 10.3 35 Sudoeste 52 Sudoeste 1.2 -- -- 89
2021-02-02 16:00:00 12.1 26 Sur 51 Sur 0 -- -- 78
2021-02-02 15:00:00 11.6 21 Sur 56 Sudoeste 0 -- -- 85
2021-02-02 14:00:00 11.2 25 Sudoeste 46 Sudoeste 0 -- -- 89
2021-02-02 13:00:00 11.1 27 Sur 58 Sur 0.6 -- -- 82
2021-02-02 12:00:00 10.3 21 Sudoeste 59 Sudoeste 0.4 -- -- 89
2021-02-02 11:00:00 11.7 31 Sudoeste 56 Oeste 0.2 -- -- 79
2021-02-02 10:00:00 10.3 28 Sur 57 Sudoeste 0.2 -- -- 84
2021-02-02 09:00:00 9.8 23 Sudoeste 45 Sur 0.2 -- -- 85
2021-02-02 08:00:00 10.4 35 Sudoeste 56 Sudoeste 0 -- -- 82
2021-02-02 07:00:00 10.4 32 Sur 50 Sur 0 -- -- 80
2021-02-02 06:00:00 9.3 18 Sur 46 Sudoeste 0 -- -- 90
2021-02-02 05:00:00 10 25 Sudoeste 49 Sudoeste 0 -- -- 84
2021-02-02 04:00:00 10.2 30 Sudoeste 73 Sudoeste 0 -- -- 81
2021-02-02 03:00:00 9.8 43 Sudoeste 77 Sudoeste 0 -- -- 84
2021-02-02 02:00:00 10.3 45 Sudoeste 73 Sudoeste 0 -- -- 84
2021-02-02 01:00:00 10.2 35 Sudoeste 63 Sudoeste 0 -- -- 91
2021-02-02 00:00:00 11.1 36 Sudoeste 60 Sudoeste 0 -- -- 84
2021-02-01 23:00:00 11.4 32 Sudoeste 61 Sudoeste 0 -- -- 85
2021-02-01 22:00:00 11.3 27 Sudoeste 62 Sudoeste 0 -- -- 87
2021-02-01 21:00:00 11.2 32 Sudoeste 55 Sudoeste 0 -- -- 89
2021-02-01 20:00:00 10.6 29 Sudoeste 50 Sudoeste 0 -- -- 94
2021-02-01 19:00:00 10.3 20 Sudoeste 46 Sudoeste 0 -- -- 93
2021-02-01 18:00:00 10.7 28 Sudoeste 53 Sudoeste 0 -- -- 85
2021-02-01 17:00:00 10.7 30 Sudoeste 51 Sudoeste 0 -- -- 79
2021-02-01 16:00:00 10.3 30 Sudoeste 50 Sudoeste 0 -- -- 83
2021-02-01 15:00:00 10.5 29 Sudoeste 48 Sudoeste 0.2 -- -- 85
2021-02-01 14:00:00 9.9 28 Sudoeste 44 Sudoeste 0 -- -- 90
2021-02-01 13:00:00 9.7 24 Sudoeste 45 Sudoeste 0 -- -- 92
2021-02-01 12:00:00 9.3 23 Sudoeste 45 Sudoeste 0 -- -- 93
2021-02-01 11:00:00 8.8 27 Sudoeste 45 Sur 0 -- -- 95
2021-02-01 10:00:00 8.3 25 Sudoeste 40 Sudoeste 0 -- -- 96
2021-02-01 09:00:00 8 28 Sudoeste 47 Sudoeste 0 -- -- 96
2021-02-01 08:00:00 8 27 Sudoeste 46 Sudoeste 0.2 -- -- 96
2021-02-01 07:00:00 8.2 27 Sudoeste 45 Sudoeste 0 -- -- 93
2021-02-01 06:00:00 8.7 24 Sudoeste 45 Sudoeste 0 -- -- 87
2021-02-01 05:00:00 8.6 29 Sudoeste 58 Sudoeste 0 -- -- 86
2021-02-01 04:00:00 8.6 31 Sudoeste 62 Sudoeste 0 -- -- 87
2021-02-01 03:00:00 8.6 33 Sudoeste 62 Sudoeste 0 -- -- 85
2021-02-01 02:00:00 8.7 27 Sudoeste 66 Oeste 0 -- -- 85
2021-02-01 01:00:00 8.8 31 Sudoeste 75 Oeste 0 -- -- 84
2021-02-01 00:00:00 8.9 42 Sudoeste 78 Oeste 0 -- -- 84
2021-01-31 23:00:00 9 39 Oeste 80 Oeste 0 -- -- 84
2021-01-31 22:00:00 9.1 42 Oeste 84 Oeste 0 -- -- 83
2021-01-31 21:00:00 9.6 42 Oeste 70 Oeste 0 -- -- 84
2021-01-31 20:00:00 10 31 Sudoeste 79 Oeste 0 -- -- 85
2021-01-31 19:00:00 10.3 28 Sudoeste 78 Sudoeste 0 -- -- 86
2021-01-31 18:00:00 10.4 38 Sudoeste 69 Oeste 0 -- -- 87
2021-01-31 17:00:00 11.8 35 Sudoeste 65 Sudoeste 0 -- -- 79
2021-01-31 16:00:00 12.4 35 Sudoeste 60 Sudoeste 0 -- -- 81
2021-01-31 15:00:00 11.4 29 Sudoeste 52 Sudoeste 0 -- -- 87
2021-01-31 14:00:00 11.1 33 Sudoeste 57 Oeste 0.2 -- -- 90
2021-01-31 13:00:00 10.5 32 Sudoeste 51 Sudoeste 0 -- -- 95
2021-01-31 12:00:00 10.2 21 Sudoeste 51 Sudoeste 0.2 -- -- 98
2021-01-31 11:00:00 9.6 19 Sudoeste 40 Oeste 0.6 -- -- 99
2021-01-31 10:00:00 8.8 14 Sudoeste 37 Sudoeste 0.8 -- -- 99
2021-01-31 09:00:00 8.2 12 Sudoeste 36 Sudoeste 1.2 -- -- 98
2021-01-31 08:00:00 7.8 22 Sudoeste 49 Sudoeste 0.4 -- -- 97
2021-01-31 07:00:00 7.1 22 Sudoeste 40 Sudoeste 0.4 -- -- 97
2021-01-31 06:00:00 6.4 13 Sur 40 Sudoeste 0.4 -- -- 97
2021-01-31 05:00:00 5.8 18 Sudoeste 30 Sudoeste 2 -- -- 97
2021-01-31 04:00:00 5.3 17 Sudoeste 42 Sur 2 -- -- 95
2021-01-31 03:00:00 5.6 26 Sudoeste 55 Sudoeste 0 -- -- 91
2021-01-31 02:00:00 5.6 17 Sudoeste 54 Oeste 0 -- -- 92
2021-01-31 01:00:00 5.4 18 Sudoeste 70 Oeste 0 -- -- 93
2021-01-31 00:00:00 5.2 33 Oeste 60 Oeste 0.4 -- -- 94
2021-01-30 23:00:00 5.1 27 Sudoeste 63 Oeste 0 -- -- 96
2021-01-30 22:00:00 5.1 36 Oeste 65 Oeste 0 -- -- 92
2021-01-30 21:00:00 4.7 30 Oeste 73 Sudoeste 0.2 -- -- 93
2021-01-30 20:00:00 4.7 35 Oeste 62 Sudoeste 0.6 -- -- 93
2021-01-30 19:00:00 4.8 38 Sudoeste 76 Oeste 2 -- -- 93
2021-01-30 18:00:00 4.9 37 Oeste 77 Sudoeste 0.8 -- -- 92
2021-01-30 17:00:00 5.1 33 Oeste 76 Oeste 1.4 -- -- 88
2021-01-30 16:00:00 5.6 40 Oeste 67 Oeste 0.4 -- -- 90
2021-01-30 15:00:00 6 27 Oeste 63 Oeste 1.2 -- -- 88
2021-01-30 14:00:00 5 42 Oeste 75 Sudoeste 2.6 -- -- 93
2021-01-30 13:00:00 5.6 28 Sudoeste 58 Oeste 0.2 -- -- 90
2021-01-30 12:00:00 5.1 29 Oeste 63 Sudoeste 0 -- -- 92
2021-01-30 11:00:00 4.8 35 Oeste 82 Oeste 0.2 -- -- 92
2021-01-30 10:00:00 4.7 39 Sudoeste 67 Sudoeste 1.2 -- -- 93
2021-01-30 09:00:00 5 27 Sudoeste 66 Sudoeste 0.8 -- -- 91
2021-01-30 08:00:00 6.2 37 Sudoeste 62 Sudoeste 0 -- -- 83
2021-01-30 07:00:00 6.2 26 Sudoeste 75 Oeste 0.2 -- -- 85
2021-01-30 06:00:00 6.5 40 Sudoeste 73 Oeste 0 -- -- 89
2021-01-30 05:00:00 6.4 29 Sudoeste 97 Sur 3 -- -- 93
2021-01-30 04:00:00 7.3 32 Sudoeste 62 Sudoeste 1.2 -- -- 93
2021-01-30 03:00:00 8 38 Sudoeste 60 Sudoeste 0 -- -- 88
2021-01-30 02:00:00 8.1 32 Sudoeste 79 Sudoeste 0.6 -- -- 94
2021-01-30 01:00:00 9 38 Sudoeste 74 Sudoeste 2.6 -- -- 88
2021-01-30 00:00:00 9.7 34 Sudoeste 59 Sudoeste 5.2 -- -- 92